sensor_id;sensor_type;location;lat;lon;timestamp;P1;durP1;ratioP1;P2;durP2;ratioP2
15557;SDS011;7880;50.110;9.372;2024-01-25T00:04:34;13.938461538461533;;;2.7307692307692295;;
15557;SDS011;7880;50.110;9.372;2024-01-25T00:09:42;21.77692307692308;;;3.630769230769232;;
15557;SDS011;7880;50.110;9.372;2024-01-25T00:14:47;27.923076923076923;;;3.399999999999999;;
15557;SDS011;7880;50.110;9.372;2024-01-25T00:19:48;21.861538461538466;;;3.8307692307692305;;
15557;SDS011;7880;50.110;9.372;2024-01-25T00:24:54;18.25384615384615;;;3.56923076923077;;
15557;SDS011;7880;50.110;9.372;2024-01-25T00:29:54;20.06153846153847;;;3.100000000000001;;
15557;SDS011;7880;50.110;9.372;2024-01-25T00:35:00;14.515384615384615;;;3.7000000000000006;;
15557;SDS011;7880;50.110;9.372;2024-01-25T00:40:09;27.230769230769223;;;3.7000000000000006;;
15557;SDS011;7880;50.110;9.372;2024-01-25T00:45:07;13.338461538461537;;;3.8307692307692305;;
15557;SDS011;7880;50.110;9.372;2024-01-25T00:50:09;19.66923076923077;;;3.2999999999999994;;
15557;SDS011;7880;50.110;9.372;2024-01-25T00:55:17;17.976923076923075;;;3.969230769230769;;
15557;SDS011;7880;50.110;9.372;2024-01-25T01:00:18;25.500000000000007;;;3.2999999999999994;;
15557;SDS011;7880;50.110;9.372;2024-01-25T01:05:21;19.24615384615385;;;3.2692307692307705;;
15557;SDS011;7880;50.110;9.372;2024-01-25T01:10:21;16.476923076923075;;;2.969230769230769;;
15557;SDS011;7880;50.110;9.372;2024-01-25T01:15:24;18.961538461538467;;;3.161538461538461;;
15557;SDS011;7880;50.110;9.372;2024-01-25T01:20:28;18.753846153846155;;;4.023076923076924;;
15557;SDS011;7880;50.110;9.372;2024-01-25T01:25:33;17.146153846153847;;;2.992307692307693;;
15557;SDS011;7880;50.110;9.372;2024-01-25T01:30:43;31.069230769230778;;;3.43076923076923;;
15557;SDS011;7880;50.110;9.372;2024-01-25T01:35:36;23.938461538461542;;;3.3615384615384616;;
15557;SDS011;7880;50.110;9.372;2024-01-25T01:39:15;30.03076923076923;;;5.138461538461538;;
15557;SDS011;7880;50.110;9.372;2024-01-25T01:44:21;23.900000000000002;;;3.738461538461539;;
15557;SDS011;7880;50.110;9.372;2024-01-25T01:49:29;23.73076923076923;;;3.630769230769232;;
15557;SDS011;7880;50.110;9.372;2024-01-25T01:54:28;21.130769230769236;;;4.353846153846154;;
15557;SDS011;7880;50.110;9.372;2024-01-25T01:59:33;21.692307692307683;;;3.43076923076923;;
15557;SDS011;7880;50.110;9.372;2024-01-25T02:04:45;24.730769230769223;;;3.06923076923077;;
15557;SDS011;7880;50.110;9.372;2024-01-25T02:09:50;16.130769230769225;;;2.953846153846153;;
15557;SDS011;7880;50.110;9.372;2024-01-25T02:14:59;12.538461538461535;;;3.530769230769231;;
15557;SDS011;7880;50.110;9.372;2024-01-25T02:19:57;27.738461538461532;;;4.06923076923077;;
15557;SDS011;7880;50.110;9.372;2024-01-25T02:25:03;18.707692307692305;;;3.7307692307692295;;
15557;SDS011;7880;50.110;9.372;2024-01-25T02:30:13;15.323076923076918;;;3.7692307692307705;;
15557;SDS011;7880;50.110;9.372;2024-01-25T02:35:10;15.646153846153844;;;3.3461538461538463;;
15557;SDS011;7880;50.110;9.372;2024-01-25T02:40:14;19.492307692307694;;;3.469230769230769;;
15557;SDS011;7880;50.110;9.372;2024-01-25T02:45:20;24.830769230769228;;;4.1000000000000005;;
15557;SDS011;7880;50.110;9.372;2024-01-25T02:50:22;20.60769230769231;;;3.100000000000001;;
15557;SDS011;7880;50.110;9.372;2024-01-25T02:55:24;25.161538461538456;;;3.646153846153848;;
15557;SDS011;7880;50.110;9.372;2024-01-25T03:00:29;18.853846153846153;;;2.661538461538462;;
15557;SDS011;7880;50.110;9.372;2024-01-25T03:05:34;20.66923076923077;;;4.869230769230769;;
15557;SDS011;7880;50.110;9.372;2024-01-25T03:10:45;21.053846153846152;;;3.0;;
15557;SDS011;7880;50.110;9.372;2024-01-25T03:15:41;21.9;;;3.5230769230769217;;
15557;SDS011;7880;50.110;9.372;2024-01-25T03:20:43;22.361538461538462;;;3.869230769230768;;
15557;SDS011;7880;50.110;9.372;2024-01-25T03:25:47;18.24615384615385;;;3.2;;
15557;SDS011;7880;50.110;9.372;2024-01-25T03:30:53;17.869230769230764;;;3.56923076923077;;
15557;SDS011;7880;50.110;9.372;2024-01-25T03:36:02;19.60769230769231;;;4.469230769230769;;
15557;SDS011;7880;50.110;9.372;2024-01-25T03:41:02;28.93846153846153;;;4.200000000000001;;
15557;SDS011;7880;50.110;9.372;2024-01-25T03:46:11;27.32307692307692;;;4.269230769230769;;
15557;SDS011;7880;50.110;9.372;2024-01-25T03:51:07;31.361538461538466;;;4.0;;
15557;SDS011;7880;50.110;9.372;2024-01-25T03:56:17;17.67692307692308;;;3.899999999999999;;
15557;SDS011;7880;50.110;9.372;2024-01-25T04:01:14;18.80769230769231;;;3.8307692307692305;;
15557;SDS011;7880;50.110;9.372;2024-01-25T04:06:21;17.076923076923077;;;3.43076923076923;;
15557;SDS011;7880;50.110;9.372;2024-01-25T04:11:34;24.138461538461534;;;2.830769230769231;;
15557;SDS011;7880;50.110;9.372;2024-01-25T04:16:26;21.069230769230767;;;3.2;;
15557;SDS011;7880;50.110;9.372;2024-01-25T04:21:29;23.153846153846153;;;4.569230769230769;;
15557;SDS011;7880;50.110;9.372;2024-01-25T04:26:34;16.615384615384617;;;3.7999999999999994;;
15557;SDS011;7880;50.110;9.372;2024-01-25T04:31:42;31.59230769230769;;;4.130769230769232;;
15557;SDS011;7880;50.110;9.372;2024-01-25T04:36:42;19.815384615384612;;;3.2;;
15557;SDS011;7880;50.110;9.372;2024-01-25T04:41:44;20.353846153846153;;;5.200000000000001;;
15557;SDS011;7880;50.110;9.372;2024-01-25T04:46:50;22.33846153846154;;;3.399999999999999;;
15557;SDS011;7880;50.110;9.372;2024-01-25T04:51:51;18.023076923076925;;;3.100000000000001;;
15557;SDS011;7880;50.110;9.372;2024-01-25T04:56:55;22.269230769230777;;;3.7307692307692295;;
15557;SDS011;7880;50.110;9.372;2024-01-25T05:01:58;17.94615384615384;;;3.7000000000000006;;
15557;SDS011;7880;50.110;9.372;2024-01-25T05:07:10;25.707692307692312;;;4.33076923076923;;
15557;SDS011;7880;50.110;9.372;2024-01-25T05:12:06;24.71538461538462;;;3.899999999999999;;
15557;SDS011;7880;50.110;9.372;2024-01-25T05:17:09;19.376923076923074;;;4.200000000000001;;
15557;SDS011;7880;50.110;9.372;2024-01-25T05:22:14;26.115384615384617;;;3.93076923076923;;
15557;SDS011;7880;50.110;9.372;2024-01-25T05:27:17;22.615384615384617;;;3.93076923076923;;
15557;SDS011;7880;50.110;9.372;2024-01-25T05:32:23;25.438461538461542;;;5.06923076923077;;
15557;SDS011;7880;50.110;9.372;2024-01-25T05:37:25;23.853846153846145;;;5.8307692307692305;;
15557;SDS011;7880;50.110;9.372;2024-01-25T05:42:30;24.407692307692304;;;5.1692307692307695;;
15557;SDS011;7880;50.110;9.372;2024-01-25T05:47:34;22.269230769230777;;;4.700000000000001;;
15557;SDS011;7880;50.110;9.372;2024-01-25T05:52:37;24.692307692307693;;;3.9615384615384617;;
15557;SDS011;7880;50.110;9.372;2024-01-25T05:57:43;20.807692307692307;;;4.530769230769231;;
15557;SDS011;7880;50.110;9.372;2024-01-25T06:02:46;20.853846153846153;;;3.661538461538461;;
15557;SDS011;7880;50.110;9.372;2024-01-25T06:07:52;23.953846153846158;;;4.430769230769231;;
15557;SDS011;7880;50.110;9.372;2024-01-25T06:12:56;27.79999999999999;;;4.369230769230769;;
15557;SDS011;7880;50.110;9.372;2024-01-25T06:17:57;23.76153846153846;;;3.899999999999999;;
15557;SDS011;7880;50.110;9.372;2024-01-25T06:23:20;22.63076923076923;;;4.161538461538461;;
15557;SDS011;7880;50.110;9.372;2024-01-25T06:28:07;22.63076923076923;;;4.161538461538461;;
15557;SDS011;7880;50.110;9.372;2024-01-25T06:33:11;19.538461538461537;;;3.7307692307692295;;
15557;SDS011;7880;50.110;9.372;2024-01-25T06:38:36;25.969230769230762;;;5.299999999999999;;
15557;SDS011;7880;50.110;9.372;2024-01-25T06:43:34;30.30000000000001;;;5.200000000000001;;
15557;SDS011;7880;50.110;9.372;2024-01-25T06:48:37;21.092307692307696;;;4.569230769230769;;
15557;SDS011;7880;50.110;9.372;2024-01-25T06:53:44;23.069230769230778;;;4.792307692307692;;
15557;SDS011;7880;50.110;9.372;2024-01-25T06:58:45;28.623076923076926;;;5.192307692307693;;
15557;SDS011;7880;50.110;9.372;2024-01-25T07:03:50;26.53076923076923;;;5.8307692307692305;;
15557;SDS011;7880;50.110;9.372;2024-01-25T07:08:53;21.630769230769225;;;4.0;;
15557;SDS011;7880;50.110;9.372;2024-01-25T07:13:58;28.430769230769233;;;5.6;;
15557;SDS011;7880;50.110;9.372;2024-01-25T07:18:59;27.576923076923077;;;5.961538461538459;;
15557;SDS011;7880;50.110;9.372;2024-01-25T07:24:04;33.25384615384616;;;5.130769230769232;;
15557;SDS011;7880;50.110;9.372;2024-01-25T07:29:06;21.453846153846158;;;5.4;;
15557;SDS011;7880;50.110;9.372;2024-01-25T07:34:22;23.684615384615377;;;4.961538461538461;;
15557;SDS011;7880;50.110;9.372;2024-01-25T07:39:14;25.161538461538456;;;5.1000000000000005;;
15557;SDS011;7880;50.110;9.372;2024-01-25T07:44:21;28.438461538461542;;;4.33076923076923;;
15557;SDS011;7880;50.110;9.372;2024-01-25T07:49:25;27.78461538461538;;;4.5;;
15557;SDS011;7880;50.110;9.372;2024-01-25T07:54:31;28.46153846153846;;;5.6;;
15557;SDS011;7880;50.110;9.372;2024-01-25T07:59:32;26.44615384615385;;;6.038461538461541;;
15557;SDS011;7880;50.110;9.372;2024-01-25T08:04:42;29.97692307692307;;;5.200000000000001;;
15557;SDS011;7880;50.110;9.372;2024-01-25T08:09:41;13.446153846153846;;;4.730769230769231;;
15557;SDS011;7880;50.110;9.372;2024-01-25T08:14:48;24.03076923076923;;;4.730769230769231;;
15557;SDS011;7880;50.110;9.372;2024-01-25T08:19:50;24.223076923076913;;;4.130769230769232;;
15557;SDS011;7880;50.110;9.372;2024-01-25T08:24:51;18.761538461538464;;;4.630769230769232;;
15557;SDS011;7880;50.110;9.372;2024-01-25T08:29:57;31.96153846153847;;;6.93076923076923;;
15557;SDS011;7880;50.110;9.372;2024-01-25T08:35:08;28.607692307692297;;;5.200000000000001;;
15557;SDS011;7880;50.110;9.372;2024-01-25T08:40:01;23.838461538461544;;;5.299999999999999;;
15557;SDS011;7880;50.110;9.372;2024-01-25T08:45:09;30.26923076923077;;;5.369230769230768;;
15557;SDS011;7880;50.110;9.372;2024-01-25T08:50:10;22.838461538461537;;;4.869230769230769;;
15557;SDS011;7880;50.110;9.372;2024-01-25T08:55:10;23.78461538461539;;;4.469230769230769;;
15557;SDS011;7880;50.110;9.372;2024-01-25T09:00:15;32.538461538461554;;;5.269230769230768;;
15557;SDS011;7880;50.110;9.372;2024-01-25T09:05:20;29.53846153846153;;;5.6;;
15557;SDS011;7880;50.110;9.372;2024-01-25T09:10:21;26.261538461538464;;;6.630769230769232;;
15557;SDS011;7880;50.110;9.372;2024-01-25T09:15:37;29.684615384615384;;;6.1;;
15557;SDS011;7880;50.110;9.372;2024-01-25T09:20:29;27.961538461538453;;;6.323076923076922;;
15557;SDS011;7880;50.110;9.372;2024-01-25T09:25:34;28.653846153846153;;;5.630769230769232;;
15557;SDS011;7880;50.110;9.372;2024-01-25T09:30:39;29.46153846153846;;;8.099999999999998;;
15557;SDS011;7880;50.110;9.372;2024-01-25T09:35:41;23.4;;;5.661538461538462;;
15557;SDS011;7880;50.110;9.372;2024-01-25T09:40:44;28.423076923076923;;;5.230769230769231;;
15557;SDS011;7880;50.110;9.372;2024-01-25T09:45:52;23.330769230769228;;;7.0;;
15557;SDS011;7880;50.110;9.372;2024-01-25T09:50:52;44.45384615384614;;;18.561538461538458;;
15557;SDS011;7880;50.110;9.372;2024-01-25T09:55:57;34.57692307692308;;;9.538461538461538;;
15557;SDS011;7880;50.110;9.372;2024-01-25T10:01:00;23.561538461538458;;;5.961538461538459;;
15557;SDS011;7880;50.110;9.372;2024-01-25T10:06:09;27.95384615384615;;;7.030769230769229;;
15557;SDS011;7880;50.110;9.372;2024-01-25T10:11:12;22.55384615384615;;;4.730769230769231;;
15557;SDS011;7880;50.110;9.372;2024-01-25T10:16:14;45.79230769230769;;;13.023076923076928;;
15557;SDS011;7880;50.110;9.372;2024-01-25T10:21:22;72.2;;;30.384615384615376;;
15557;SDS011;7880;50.110;9.372;2024-01-25T10:26:21;29.323076923076925;;;6.86153846153846;;
15557;SDS011;7880;50.110;9.372;2024-01-25T10:31:25;30.90769230769231;;;9.700000000000001;;
15557;SDS011;7880;50.110;9.372;2024-01-25T10:36:37;26.846153846153836;;;7.799999999999998;;
15557;SDS011;7880;50.110;9.372;2024-01-25T10:41:36;25.969230769230762;;;5.323076923076924;;
15557;SDS011;7880;50.110;9.372;2024-01-25T10:46:40;23.884615384615376;;;4.730769230769231;;
15557;SDS011;7880;50.110;9.372;2024-01-25T10:51:46;27.699999999999992;;;6.130769230769232;;
15557;SDS011;7880;50.110;9.372;2024-01-25T10:56:58;27.49230769230769;;;5.4923076923076914;;
15557;SDS011;7880;50.110;9.372;2024-01-25T11:01:54;18.26153846153846;;;5.43076923076923;;
15557;SDS011;7880;50.110;9.372;2024-01-25T11:07:04;29.04615384615384;;;4.530769230769231;;
15557;SDS011;7880;50.110;9.372;2024-01-25T11:11:59;28.884615384615394;;;4.438461538461539;;
15557;SDS011;7880;50.110;9.372;2024-01-25T11:17:14;13.423076923076923;;;3.8615384615384616;;
15557;SDS011;7880;50.110;9.372;2024-01-25T11:22:11;28.738461538461532;;;6.238461538461536;;
15557;SDS011;7880;50.110;9.372;2024-01-25T11:27:14;24.28461538461539;;;4.3999999999999995;;
15557;SDS011;7880;50.110;9.372;2024-01-25T11:32:19;15.384615384615385;;;4.369230769230769;;
15557;SDS011;7880;50.110;9.372;2024-01-25T11:37:23;28.56153846153847;;;5.269230769230769;;
15557;SDS011;7880;50.110;9.372;2024-01-25T11:42:33;19.961538461538467;;;3.6923076923076925;;
15557;SDS011;7880;50.110;9.372;2024-01-25T11:47:48;22.446153846153848;;;5.461538461538459;;
15557;SDS011;7880;50.110;9.372;2024-01-25T11:52:51;21.330769230769235;;;4.0;;
15557;SDS011;7880;50.110;9.372;2024-01-25T11:57:55;15.415384615384617;;;3.892307692307693;;
15557;SDS011;7880;50.110;9.372;2024-01-25T12:03:00;21.184615384615388;;;4.06923076923077;;
15557;SDS011;7880;50.110;9.372;2024-01-25T12:08:07;18.153846153846153;;;3.56923076923077;;
15557;SDS011;7880;50.110;9.372;2024-01-25T12:13:09;30.22307692307693;;;14.830769230769231;;
15557;SDS011;7880;50.110;9.372;2024-01-25T12:18:13;16.492307692307698;;;4.738461538461538;;
15557;SDS011;7880;50.110;9.372;2024-01-25T12:23:22;25.79999999999999;;;7.038461538461541;;
15557;SDS011;7880;50.110;9.372;2024-01-25T12:28:21;19.11538461538462;;;4.16923076923077;;
15557;SDS011;7880;50.110;9.372;2024-01-25T12:33:26;22.592307692307696;;;4.3999999999999995;;
15557;SDS011;7880;50.110;9.372;2024-01-25T12:38:31;16.99230769230769;;;4.33076923076923;;
15557;SDS011;7880;50.110;9.372;2024-01-25T12:43:36;14.538461538461538;;;4.0307692307692315;;
15557;SDS011;7880;50.110;9.372;2024-01-25T12:48:38;11.215384615384618;;;3.969230769230769;;
15557;SDS011;7880;50.110;9.372;2024-01-25T12:53:40;15.5;;;4.561538461538462;;
15557;SDS011;7880;50.110;9.372;2024-01-25T12:58:44;27.638461538461534;;;5.253846153846155;;
15557;SDS011;7880;50.110;9.372;2024-01-25T13:03:52;24.176923076923075;;;4.661538461538462;;
15557;SDS011;7880;50.110;9.372;2024-01-25T13:08:55;15.384615384615389;;;3.369230769230768;;
15557;SDS011;7880;50.110;9.372;2024-01-25T13:14:01;15.730769230769226;;;4.5;;
15557;SDS011;7880;50.110;9.372;2024-01-25T13:19:04;12.099999999999996;;;3.630769230769232;;
15557;SDS011;7880;50.110;9.372;2024-01-25T13:24:07;19.76153846153846;;;3.576923076923078;;
15557;SDS011;7880;50.110;9.372;2024-01-25T13:29:15;11.22307692307692;;;3.3307692307692305;;
15557;SDS011;7880;50.110;9.372;2024-01-25T13:34:19;19.599999999999998;;;5.4;;
15557;SDS011;7880;50.110;9.372;2024-01-25T13:39:22;14.50769230769231;;;3.369230769230768;;
15557;SDS011;7880;50.110;9.372;2024-01-25T13:44:26;20.22307692307692;;;5.700000000000002;;
15557;SDS011;7880;50.110;9.372;2024-01-25T13:49:33;12.123076923076924;;;4.200000000000001;;
15557;SDS011;7880;50.110;9.372;2024-01-25T13:54:32;23.292307692307688;;;7.099999999999999;;
15557;SDS011;7880;50.110;9.372;2024-01-25T13:59:36;17.684615384615384;;;4.1000000000000005;;
15557;SDS011;7880;50.110;9.372;2024-01-25T14:04:40;21.153846153846153;;;6.43076923076923;;
15557;SDS011;7880;50.110;9.372;2024-01-25T14:09:53;19.592307692307696;;;4.200000000000001;;
15557;SDS011;7880;50.110;9.372;2024-01-25T14:14:58;16.876923076923074;;;5.03076923076923;;
15557;SDS011;7880;50.110;9.372;2024-01-25T14:20:05;24.307692307692317;;;5.700000000000002;;
15557;SDS011;7880;50.110;9.372;2024-01-25T14:25:04;15.884615384615385;;;3.838461538461539;;
15557;SDS011;7880;50.110;9.372;2024-01-25T14:30:08;13.030769230769234;;;3.3384615384615377;;
15557;SDS011;7880;50.110;9.372;2024-01-25T14:35:09;22.292307692307695;;;4.06923076923077;;
15557;SDS011;7880;50.110;9.372;2024-01-25T14:40:14;19.83076923076923;;;3.6692307692307695;;
15557;SDS011;7880;50.110;9.372;2024-01-25T14:45:14;15.100000000000001;;;3.453846153846153;;
15557;SDS011;7880;50.110;9.372;2024-01-25T14:50:17;15.407692307692304;;;3.3615384615384616;;
15557;SDS011;7880;50.110;9.372;2024-01-25T14:55:21;16.02307692307693;;;4.200000000000001;;
15557;SDS011;7880;50.110;9.372;2024-01-25T15:00:26;16.29230769230769;;;3.5;;
15557;SDS011;7880;50.110;9.372;2024-01-25T15:05:30;13.36153846153846;;;3.7307692307692295;;
15557;SDS011;7880;50.110;9.372;2024-01-25T15:10:35;13.869230769230775;;;2.899999999999999;;
15557;SDS011;7880;50.110;9.372;2024-01-25T15:15:38;12.846153846153847;;;3.2;;
15557;SDS011;7880;50.110;9.372;2024-01-25T15:20:44;14.607692307692304;;;4.5;;
15557;SDS011;7880;50.110;9.372;2024-01-25T15:25:53;23.146153846153855;;;8.099999999999998;;
15557;SDS011;7880;50.110;9.372;2024-01-25T15:30:52;27.330769230769228;;;5.6692307692307695;;
15557;SDS011;7880;50.110;9.372;2024-01-25T15:35:54;17.476923076923075;;;4.1000000000000005;;
15557;SDS011;7880;50.110;9.372;2024-01-25T15:40:58;30.676923076923075;;;8.669230769230769;;
15557;SDS011;7880;50.110;9.372;2024-01-25T15:46:03;19.199999999999996;;;5.200000000000001;;
15557;SDS011;7880;50.110;9.372;2024-01-25T15:51:06;16.230769230769226;;;4.5;;
15557;SDS011;7880;50.110;9.372;2024-01-25T15:56:10;15.27692307692308;;;3.630769230769232;;
15557;SDS011;7880;50.110;9.372;2024-01-25T16:01:13;11.607692307692307;;;2.3000000000000003;;
15557;SDS011;7880;50.110;9.372;2024-01-25T16:06:24;15.707692307692307;;;3.469230769230769;;
15557;SDS011;7880;50.110;9.372;2024-01-25T16:11:21;15.307692307692308;;;3.2;;
15557;SDS011;7880;50.110;9.372;2024-01-25T16:16:24;9.969230769230771;;;2.630769230769231;;
15557;SDS011;7880;50.110;9.372;2024-01-25T16:21:28;15.669230769230769;;;2.7307692307692295;;
15557;SDS011;7880;50.110;9.372;2024-01-25T16:26:32;15.023076923076928;;;3.7000000000000006;;
15557;SDS011;7880;50.110;9.372;2024-01-25T16:31:36;14.830769230769231;;;3.7000000000000006;;
15557;SDS011;7880;50.110;9.372;2024-01-25T16:36:45;12.730769230769235;;;2.261538461538461;;
15557;SDS011;7880;50.110;9.372;2024-01-25T16:41:44;15.72307692307692;;;4.961538461538461;;
15557;SDS011;7880;50.110;9.372;2024-01-25T16:46:50;18.207692307692305;;;7.099999999999999;;
15557;SDS011;7880;50.110;9.372;2024-01-25T16:52:05;21.861538461538455;;;6.299999999999998;;
15557;SDS011;7880;50.110;9.372;2024-01-25T16:57:06;21.530769230769234;;;5.561538461538462;;
15557;SDS011;7880;50.110;9.372;2024-01-25T17:02:09;14.884615384615385;;;4.96923076923077;;
15557;SDS011;7880;50.110;9.372;2024-01-25T17:07:13;19.653846153846157;;;4.569230769230769;;
15557;SDS011;7880;50.110;9.372;2024-01-25T17:12:18;17.26923076923077;;;6.130769230769232;;
15557;SDS011;7880;50.110;9.372;2024-01-25T17:17:25;15.046153846153844;;;6.030769230769229;;
15557;SDS011;7880;50.110;9.372;2024-01-25T17:22:29;18.646153846153847;;;5.799999999999998;;
15557;SDS011;7880;50.110;9.372;2024-01-25T17:27:33;21.77692307692307;;;7.900000000000001;;
15557;SDS011;7880;50.110;9.372;2024-01-25T17:32:49;25.638461538461534;;;11.0;;
15557;SDS011;7880;50.110;9.372;2024-01-25T17:37:40;23.807692307692317;;;10.599999999999998;;
15557;SDS011;7880;50.110;9.372;2024-01-25T17:42:44;28.292307692307688;;;9.461538461538462;;
15557;SDS011;7880;50.110;9.372;2024-01-25T17:47:51;25.06923076923077;;;9.761538461538464;;
15557;SDS011;7880;50.110;9.372;2024-01-25T17:52:52;24.215384615384615;;;8.761538461538462;;
15557;SDS011;7880;50.110;9.372;2024-01-25T17:57:58;17.723076923076924;;;5.0;;
15557;SDS011;7880;50.110;9.372;2024-01-25T18:03:02;17.53076923076923;;;6.93076923076923;;
15557;SDS011;7880;50.110;9.372;2024-01-25T18:08:08;17.992307692307694;;;8.030769230769229;;
15557;SDS011;7880;50.110;9.372;2024-01-25T18:13:14;18.892307692307696;;;9.5;;
15557;SDS011;7880;50.110;9.372;2024-01-25T18:18:15;26.646153846153855;;;10.430769230769231;;
15557;SDS011;7880;50.110;9.372;2024-01-25T18:23:24;28.09230769230769;;;11.069230769230767;;
15557;SDS011;7880;50.110;9.372;2024-01-25T18:28:24;21.16153846153846;;;9.523076923076925;;
15557;SDS011;7880;50.110;9.372;2024-01-25T18:33:33;28.007692307692313;;;10.62307692307692;;
15557;SDS011;7880;50.110;9.372;2024-01-25T18:38:31;26.530769230769224;;;11.815384615384618;;
15557;SDS011;7880;50.110;9.372;2024-01-25T18:43:36;45.53076923076924;;;20.061538461538458;;
15557;SDS011;7880;50.110;9.372;2024-01-25T18:48:43;61.0846153846154;;;26.630769230769225;;
15557;SDS011;7880;50.110;9.372;2024-01-25T18:53:41;76.03076923076924;;;30.030769230769224;;
15557;SDS011;7880;50.110;9.372;2024-01-25T18:58:44;63.06923076923078;;;25.930769230769233;;
15557;SDS011;7880;50.110;9.372;2024-01-25T19:03:46;50.71538461538462;;;20.53846153846154;;
15557;SDS011;7880;50.110;9.372;2024-01-25T19:08:49;35.461538461538474;;;15.392307692307696;;
15557;SDS011;7880;50.110;9.372;2024-01-25T19:13:52;46.66923076923079;;;19.0;;
15557;SDS011;7880;50.110;9.372;2024-01-25T19:18:56;64.77692307692308;;;22.87692307692308;;
15557;SDS011;7880;50.110;9.372;2024-01-25T19:24:10;60.29230769230769;;;26.76923076923077;;
15557;SDS011;7880;50.110;9.372;2024-01-25T19:29:10;58.8769230769231;;;26.438461538461542;;
15557;SDS011;7880;50.110;9.372;2024-01-25T19:34:07;51.54615384615386;;;23.4;;
15557;SDS011;7880;50.110;9.372;2024-01-25T19:39:10;59.0923076923077;;;24.5;;
15557;SDS011;7880;50.110;9.372;2024-01-25T19:44:20;43.12307692307692;;;21.199999999999996;;
15557;SDS011;7880;50.110;9.372;2024-01-25T19:49:16;45.17692307692308;;;21.223076923076924;;
15557;SDS011;7880;50.110;9.372;2024-01-25T19:54:25;48.57692307692308;;;22.730769230769234;;
15557;SDS011;7880;50.110;9.372;2024-01-25T19:59:27;39.34615384615385;;;18.300000000000004;;
15557;SDS011;7880;50.110;9.372;2024-01-25T20:04:28;41.64615384615385;;;20.71538461538461;;
15557;SDS011;7880;50.110;9.372;2024-01-25T20:09:33;34.97692307692308;;;13.376923076923076;;
15557;SDS011;7880;50.110;9.372;2024-01-25T20:14:37;38.08461538461539;;;13.561538461538458;;
15557;SDS011;7880;50.110;9.372;2024-01-25T20:19:40;22.369230769230775;;;5.769230769230769;;
15557;SDS011;7880;50.110;9.372;2024-01-25T20:24:45;27.323076923076925;;;6.561538461538462;;
15557;SDS011;7880;50.110;9.372;2024-01-25T20:29:49;22.900000000000002;;;4.469230769230769;;
15557;SDS011;7880;50.110;9.372;2024-01-25T20:34:52;19.20769230769231;;;5.0;;
15557;SDS011;7880;50.110;9.372;2024-01-25T20:39:55;21.9;;;4.346153846153845;;
15557;SDS011;7880;50.110;9.372;2024-01-25T20:45:00;20.092307692307696;;;4.5;;
15557;SDS011;7880;50.110;9.372;2024-01-25T20:50:09;19.23846153846154;;;4.06923076923077;;
15557;SDS011;7880;50.110;9.372;2024-01-25T20:55:12;25.8076923076923;;;4.9923076923076914;;
15557;SDS011;7880;50.110;9.372;2024-01-25T21:00:15;24.215384615384615;;;5.03076923076923;;
15557;SDS011;7880;50.110;9.372;2024-01-25T21:05:19;25.65384615384615;;;5.9;;
15557;SDS011;7880;50.110;9.372;2024-01-25T21:10:25;13.269230769230765;;;4.6000000000000005;;
15557;SDS011;7880;50.110;9.372;2024-01-25T21:15:27;25.938461538461542;;;5.130769230769232;;
15557;SDS011;7880;50.110;9.372;2024-01-25T21:20:37;17.26923076923077;;;6.723076923076923;;
15557;SDS011;7880;50.110;9.372;2024-01-25T21:25:36;23.92307692307693;;;7.700000000000002;;
15557;SDS011;7880;50.110;9.372;2024-01-25T21:30:42;20.138461538461538;;;5.361538461538462;;
15557;SDS011;7880;50.110;9.372;2024-01-25T21:35:49;24.43076923076924;;;6.238461538461536;;
15557;SDS011;7880;50.110;9.372;2024-01-25T21:40:52;17.09230769230769;;;6.700000000000002;;
15557;SDS011;7880;50.110;9.372;2024-01-25T21:46:13;21.16153846153846;;;6.230769230769231;;
15557;SDS011;7880;50.110;9.372;2024-01-25T21:51:16;18.56923076923077;;;6.461538461538459;;
15557;SDS011;7880;50.110;9.372;2024-01-25T21:56:15;24.93076923076923;;;7.130769230769232;;
15557;SDS011;7880;50.110;9.372;2024-01-25T22:01:19;20.846153846153843;;;6.900000000000001;;
15557;SDS011;7880;50.110;9.372;2024-01-25T22:06:34;18.215384615384618;;;5.93076923076923;;
15557;SDS011;7880;50.110;9.372;2024-01-25T22:11:49;20.307692307692314;;;5.730769230769231;;
15557;SDS011;7880;50.110;9.372;2024-01-25T22:16:52;22.676923076923078;;;5.799999999999998;;
15557;SDS011;7880;50.110;9.372;2024-01-25T22:22:06;19.999999999999996;;;6.330769230769231;;